Time;durP1;ratioP1;P1;durP2;ratioP2;P2;SDS_P1;SDS_P2;PMS_P1;PMS_P2;Temp;Humidity;BMP_temperature;BMP_pressure;BME280_temperature;BME280_humidity;BME280_pressure;Samples;Min_cycle;Max_cycle;Signal;HPM_P1;HPM_P2
2021/01/17 00:00:54;;;;;;;10.00;3.50;;;16.80;62.70;;;;;;4955526;28;20038;-55
2021/01/17 00:03:21;;;;;;;7.03;4.10;;;16.80;62.80;;;;;;4955457;28;20468;-55
2021/01/17 00:05:49;;;;;;;6.22;3.60;;;16.70;62.70;;;;;;4955185;29;20023;-54
2021/01/17 00:08:17;;;;;;;7.38;3.70;;;16.70;62.70;;;;;;4955094;28;20031;-54
2021/01/17 00:10:43;;;;;;;7.28;3.80;;;16.70;62.70;;;;;;4955137;29;20055;-54
2021/01/17 00:13:10;;;;;;;6.65;3.50;;;16.80;62.70;;;;;;4955150;28;20027;-55
2021/01/17 00:15:37;;;;;;;6.63;3.88;;;16.70;62.70;;;;;;4955057;29;20027;-55
2021/01/17 00:18:05;;;;;;;9.02;3.95;;;16.70;62.70;;;;;;4955064;28;20034;-55
2021/01/17 00:20:32;;;;;;;5.90;3.65;;;16.70;62.80;;;;;;4954932;29;20031;-54
2021/01/17 00:23:06;;;;;;;6.45;3.55;;;16.70;62.80;;;;;;4955009;28;20027;-54
2021/01/17 00:25:34;;;;;;;6.35;3.70;;;16.70;62.80;;;;;;4955215;28;20118;-55
2021/01/17 00:28:01;;;;;;;6.32;3.63;;;16.70;62.80;;;;;;4954817;29;20031;-54
2021/01/17 00:30:32;;;;;;;5.38;3.63;;;16.70;62.90;;;;;;4955126;29;20043;-55
2021/01/17 00:33:01;;;;;;;5.85;3.30;;;16.70;62.90;;;;;;4954908;29;20027;-54
2021/01/17 00:35:29;;;;;;;6.60;4.20;;;16.70;62.90;;;;;;4954478;28;20463;-55
2021/01/17 00:37:59;;;;;;;6.15;3.72;;;16.70;62.90;;;;;;4954606;29;20478;-54
2021/01/17 00:40:27;;;;;;;7.22;3.33;;;16.70;62.90;;;;;;4954709;29;20105;-54
2021/01/17 00:42:54;;;;;;;7.72;3.90;;;16.70;63.00;;;;;;4954704;28;20482;-55
2021/01/17 00:45:23;;;;;;;8.20;3.85;;;16.60;63.00;;;;;;4954288;28;20031;-54
2021/01/17 00:47:50;;;;;;;8.73;3.58;;;16.60;63.00;;;;;;4955195;28;20035;-54
2021/01/17 00:50:19;;;;;;;7.30;3.67;;;16.70;63.10;;;;;;4954303;28;20502;-54
2021/01/17 00:52:50;;;;;;;6.03;3.85;;;16.60;63.10;;;;;;4954549;28;20023;-54
2021/01/17 00:55:16;;;;;;;7.82;4.10;;;16.60;63.10;;;;;;4954545;29;20106;-55
2021/01/17 00:57:43;;;;;;;6.97;4.10;;;16.60;63.10;;;;;;4954469;28;20344;-54
2021/01/17 01:00:11;;;;;;;7.57;4.03;;;16.60;63.20;;;;;;4954326;29;20122;-54
2021/01/17 01:02:42;;;;;;;6.55;3.92;;;16.60;63.30;;;;;;4954209;28;20038;-54
2021/01/17 01:05:13;;;;;;;6.10;3.55;;;16.60;63.30;;;;;;4954236;28;20032;-54
2021/01/17 01:07:40;;;;;;;7.07;3.88;;;16.60;63.30;;;;;;4954622;29;20023;-54
2021/01/17 01:10:08;;;;;;;8.88;4.10;;;16.50;63.20;;;;;;4954234;29;20530;-55
2021/01/17 01:12:35;;;;;;;6.70;3.88;;;16.60;63.40;;;;;;4954212;28;20023;-54
2021/01/17 01:15:04;;;;;;;5.90;3.70;;;16.50;63.40;;;;;;4954142;28;20097;-54
2021/01/17 01:17:30;;;;;;;6.97;4.30;;;16.50;63.40;;;;;;4954390;28;20085;-54
2021/01/17 01:19:57;;;;;;;6.72;4.03;;;16.50;63.40;;;;;;4954043;29;20058;-54
2021/01/17 01:22:23;;;;;;;6.47;3.95;;;16.50;63.40;;;;;;4954219;28;20107;-54
2021/01/17 01:24:50;;;;;;;6.45;3.95;;;16.50;63.50;;;;;;4954061;29;20512;-54
2021/01/17 01:27:16;;;;;;;6.38;3.50;;;16.50;63.50;;;;;;4953644;28;20031;-54
2021/01/17 01:29:43;;;;;;;6.35;4.20;;;16.50;63.60;;;;;;4954200;28;20081;-54
2021/01/17 01:32:12;;;;;;;7.80;4.43;;;16.50;63.60;;;;;;4953861;29;20036;-54
2021/01/17 01:34:39;;;;;;;7.40;4.07;;;16.50;63.60;;;;;;4954112;28;20114;-54
2021/01/17 01:37:06;;;;;;;6.28;3.78;;;16.50;63.60;;;;;;4953903;29;20031;-54
2021/01/17 01:39:33;;;;;;;7.00;4.03;;;16.50;63.70;;;;;;4953461;28;20062;-55
2021/01/17 01:42:05;;;;;;;7.63;3.92;;;16.50;63.70;;;;;;4953726;29;20028;-54
2021/01/17 01:44:31;;;;;;;8.00;4.28;;;16.50;63.70;;;;;;4954363;28;20023;-54
2021/01/17 01:46:58;;;;;;;6.68;3.88;;;16.40;63.70;;;;;;4953696;29;20028;-54
2021/01/17 01:49:26;;;;;;;7.07;3.60;;;16.50;63.80;;;;;;4952970;28;20122;-55
2021/01/17 01:51:56;;;;;;;7.95;3.85;;;16.40;63.80;;;;;;4953614;28;20062;-55
2021/01/17 01:54:22;;;;;;;8.25;4.10;;;16.40;63.90;;;;;;4952999;28;20077;-54
2021/01/17 01:56:53;;;;;;;6.00;3.88;;;16.40;63.90;;;;;;4953488;29;20035;-54
2021/01/17 01:59:21;;;;;;;7.85;4.50;;;16.40;63.90;;;;;;4953883;28;20118;-54
2021/01/17 02:01:49;;;;;;;12.57;4.13;;;16.40;64.00;;;;;;4953395;29;20062;-54
2021/01/17 02:04:16;;;;;;;13.35;4.70;;;16.40;64.00;;;;;;4953432;28;20118;-54
2021/01/17 02:07:05;;;;;;;19.50;5.07;;;16.40;64.30;;;;;;4953666;29;20063;-55
2021/01/17 02:09:32;;;;;;;22.77;7.20;;;16.40;64.60;;;;;;4950738;29;20111;-54
2021/01/17 02:12:16;;;;;;;17.23;6.40;;;16.40;64.90;;;;;;4945483;29;20119;-55
2021/01/17 02:14:48;;;;;;;21.45;7.00;;;16.40;65.20;;;;;;4934758;29;20087;-55
2021/01/17 02:17:19;;;;;;;19.77;6.87;;;16.40;65.10;;;;;;4951249;28;20106;-55
2021/01/17 02:20:03;;;;;;;21.58;6.63;;;16.40;65.10;;;;;;4952201;29;20502;-56
2021/01/17 02:22:44;;;;;;;19.95;6.20;;;16.50;65.40;;;;;;4953790;29;20031;-55
2021/01/17 02:25:12;;;;;;;19.17;5.90;;;16.50;65.70;;;;;;4953227;29;20037;-55
2021/01/17 02:27:41;;;;;;;20.00;6.03;;;16.60;65.80;;;;;;4953285;29;20081;-55
2021/01/17 02:30:13;;;;;;;15.23;5.15;;;16.60;66.10;;;;;;4952911;28;20055;-55
2021/01/17 02:32:58;;;;;;;17.38;5.10;;;16.80;66.30;;;;;;4952858;29;20026;-54
2021/01/17 02:35:25;;;;;;;29.73;7.03;;;16.90;66.30;;;;;;4953155;29;20035;-54
2021/01/17 02:38:24;;;;;;;20.70;6.22;;;17.00;66.10;;;;;;4953226;28;20028;-55
2021/01/17 02:41:21;;;;;;;19.20;5.38;;;17.20;65.80;;;;;;4953012;29;20197;-55
2021/01/17 02:43:48;;;;;;;20.25;5.40;;;17.40;65.40;;;;;;4953307;29;20028;-55
2021/01/17 02:46:15;;;;;;;17.25;5.43;;;17.60;65.10;;;;;;4952686;29;20031;-55
2021/01/17 02:48:42;;;;;;;17.63;4.63;;;17.80;64.80;;;;;;4952888;29;20073;-55
2021/01/17 02:51:08;;;;;;;20.95;4.72;;;17.90;64.50;;;;;;4952861;29;20027;-55
2021/01/17 02:53:41;;;;;;;16.05;4.80;;;18.10;64.20;;;;;;4951549;28;20467;-55
2021/01/17 02:56:12;;;;;;;15.85;4.50;;;18.30;63.90;;;;;;4952974;29;20061;-55
2021/01/17 02:58:42;;;;;;;17.83;4.63;;;18.50;63.40;;;;;;4952698;29;20102;-55
2021/01/17 03:01:12;;;;;;;15.98;4.40;;;18.70;63.10;;;;;;4953972;29;20031;-54
2021/01/17 03:03:43;;;;;;;11.65;4.30;;;18.90;62.70;;;;;;4955628;28;20427;-54
2021/01/17 03:06:10;;;;;;;12.32;3.63;;;19.10;62.30;;;;;;4956003;28;20032;-55
2021/01/17 03:08:41;;;;;;;11.43;3.95;;;19.30;62.00;;;;;;4956285;28;20032;-55
2021/01/17 03:11:07;;;;;;;11.60;3.97;;;19.60;61.60;;;;;;4956285;28;20031;-55
2021/01/17 03:13:37;;;;;;;12.30;3.70;;;19.80;61.10;;;;;;4955759;28;20110;-55
2021/01/17 03:16:07;;;;;;;14.85;3.70;;;20.00;60.60;;;;;;4955899;28;20031;-55
2021/01/17 03:18:34;;;;;;;10.18;3.85;;;20.30;60.10;;;;;;4955534;29;20035;-55
2021/01/17 03:21:01;;;;;;;6.55;3.38;;;20.50;59.70;;;;;;4955902;28;20498;-54
2021/01/17 03:23:27;;;;;;;11.27;3.40;;;20.70;59.30;;;;;;4956305;29;20042;-54
2021/01/17 03:25:54;;;;;;;8.57;3.33;;;20.90;58.70;;;;;;4955642;28;20066;-54
2021/01/17 03:28:20;;;;;;;12.10;3.72;;;21.10;58.30;;;;;;4955521;28;20019;-54
2021/01/17 03:30:47;;;;;;;10.32;3.75;;;21.30;57.90;;;;;;4955738;29;20439;-54
2021/01/17 03:33:13;;;;;;;12.55;3.75;;;21.40;57.40;;;;;;4955421;28;20023;-54
2021/01/17 03:35:40;;;;;;;8.88;3.55;;;21.60;57.10;;;;;;4955632;28;20475;-55
2021/01/17 03:38:06;;;;;;;8.40;3.30;;;21.80;56.70;;;;;;4955621;29;20027;-55
2021/01/17 03:40:33;;;;;;;7.35;3.80;;;21.90;56.40;;;;;;4955729;29;20113;-55
2021/01/17 03:42:59;;;;;;;14.13;3.45;;;22.10;56.10;;;;;;4955574;29;20085;-55
2021/01/17 03:45:26;;;;;;;8.98;3.38;;;22.10;55.80;;;;;;4955289;28;20356;-55
2021/01/17 03:47:52;;;;;;;6.18;3.08;;;22.20;55.50;;;;;;4955395;28;20081;-55
2021/01/17 03:50:19;;;;;;;6.15;2.90;;;22.30;55.20;;;;;;4955389;29;20093;-54
2021/01/17 03:52:45;;;;;;;13.30;3.80;;;22.40;54.90;;;;;;4955270;29;20024;-54
2021/01/17 03:55:12;;;;;;;15.80;4.32;;;22.50;54.80;;;;;;4955219;29;20035;-55
2021/01/17 03:57:38;;;;;;;17.25;6.30;;;22.60;54.50;;;;;;4954431;29;20038;-55
2021/01/17 04:00:08;;;;;;;13.98;4.30;;;22.60;54.30;;;;;;4955223;29;20080;-55
2021/01/17 04:02:35;;;;;;;17.17;3.50;;;22.70;54.10;;;;;;4955005;29;20027;-55
2021/01/17 04:05:01;;;;;;;13.43;4.40;;;22.80;54.00;;;;;;4954300;29;20032;-55
2021/01/17 04:07:29;;;;;;;15.10;4.47;;;22.80;53.80;;;;;;4955396;28;20455;-55
2021/01/17 04:09:56;;;;;;;14.57;3.92;;;22.90;53.70;;;;;;4955040;28;20039;-55
2021/01/17 04:12:22;;;;;;;15.02;4.15;;;22.90;53.50;;;;;;4955121;28;20032;-55
2021/01/17 04:14:49;;;;;;;10.85;3.60;;;23.00;53.60;;;;;;4955074;28;20039;-54
2021/01/17 04:17:15;;;;;;;10.65;3.70;;;23.00;53.40;;;;;;4954931;28;20093;-55
2021/01/17 04:19:42;;;;;;;8.68;3.67;;;23.10;53.30;;;;;;4954510;28;20039;-54
2021/01/17 04:22:08;;;;;;;12.30;3.72;;;23.10;53.10;;;;;;4954951;28;20028;-54
2021/01/17 04:24:35;;;;;;;10.95;3.75;;;23.20;53.10;;;;;;4954984;29;20110;-55
2021/01/17 04:27:02;;;;;;;9.75;3.60;;;23.20;52.90;;;;;;4954995;28;20038;-55
2021/01/17 04:29:28;;;;;;;10.20;3.10;;;23.30;52.80;;;;;;4954841;28;20027;-54
2021/01/17 04:31:58;;;;;;;11.35;3.08;;;23.40;52.70;;;;;;4954863;29;20031;-54
2021/01/17 04:34:25;;;;;;;8.50;2.95;;;23.40;52.50;;;;;;4954535;28;20067;-54
2021/01/17 04:36:51;;;;;;;9.13;3.42;;;23.50;52.40;;;;;;4954733;28;20038;-54
2021/01/17 04:39:18;;;;;;;7.30;3.00;;;23.60;52.30;;;;;;4954685;29;20083;-55
2021/01/17 04:41:46;;;;;;;11.93;3.20;;;23.60;52.10;;;;;;4954725;29;20058;-55
2021/01/17 04:44:20;;;;;;;6.95;2.78;;;23.70;52.00;;;;;;4954697;29;20432;-56
2021/01/17 04:46:49;;;;;;;6.35;2.80;;;23.80;51.90;;;;;;4954737;29;20027;-54
2021/01/17 04:49:19;;;;;;;6.55;2.83;;;23.80;51.80;;;;;;4954135;29;20050;-55
2021/01/17 04:51:51;;;;;;;9.93;2.80;;;23.90;51.70;;;;;;4955323;29;20031;-54
2021/01/17 04:54:17;;;;;;;;;;;24.00;51.50;;;;;;4955220;28;20031;-54
2021/01/17 04:56:55;;;;;;;5.80;2.47;;;24.00;51.80;;;;;;4954510;28;19906;-54
2021/01/17 04:59:29;;;;;;;12.00;2.78;;;24.10;51.30;;;;;;4954527;28;20030;-54
2021/01/17 05:02:33;;;;;;;7.25;3.00;;;24.10;51.20;;;;;;4954477;29;20044;-53
2021/01/17 05:05:24;;;;;;;5.85;2.53;;;24.20;51.10;;;;;;4945679;28;20049;-56
2021/01/17 05:08:08;;;;;;;8.27;2.70;;;24.20;51.00;;;;;;4954565;28;20035;-55
2021/01/17 05:10:37;;;;;;;12.57;2.70;;;24.30;50.90;;;;;;4954194;28;20039;-54
2021/01/17 05:13:16;;;;;;;7.45;3.10;;;24.30;50.70;;;;;;4954113;29;20028;-54
2021/01/17 05:15:45;;;;;;;7.35;2.70;;;24.30;50.50;;;;;;4954228;29;20471;-55
2021/01/17 05:18:12;;;;;;;6.40;2.80;;;24.30;50.60;;;;;;4953720;29;20403;-55
2021/01/17 05:20:38;;;;;;;8.10;2.40;;;24.30;50.40;;;;;;4954520;28;20039;-54
2021/01/17 05:23:10;;;;;;;7.03;2.70;;;24.20;50.20;;;;;;4953743;28;20032;-55
2021/01/17 05:25:37;;;;;;;4.10;2.30;;;24.20;50.20;;;;;;4953750;28;20379;-55
2021/01/17 05:28:04;;;;;;;9.77;2.50;;;24.20;50.30;;;;;;4954073;28;20533;-55
2021/01/17 05:30:30;;;;;;;6.18;2.20;;;24.20;50.30;;;;;;4953906;29;20221;-54
2021/01/17 05:33:00;;;;;;;8.65;2.17;;;24.10;50.30;;;;;;4953687;29;20023;-54
2021/01/17 05:35:27;;;;;;;10.68;2.65;;;24.10;51.00;;;;;;4953936;28;20027;-55
2021/01/17 05:37:55;;;;;;;6.45;2.13;;;24.00;50.40;;;;;;4953844;29;20019;-54
2021/01/17 05:40:22;;;;;;;5.65;2.35;;;24.00;50.40;;;;;;4953414;28;20062;-55
2021/01/17 05:42:50;;;;;;;6.20;2.15;;;23.90;50.40;;;;;;4953853;28;20023;-55
2021/01/17 05:45:22;;;;;;;7.68;2.20;;;23.90;50.50;;;;;;4954007;29;20054;-54
2021/01/17 05:47:56;;;;;;;8.77;2.13;;;23.90;50.50;;;;;;4953254;28;20031;-55
2021/01/17 05:50:23;;;;;;;4.00;2.13;;;23.80;50.50;;;;;;4953916;28;20043;-55
2021/01/17 05:52:57;;;;;;;5.55;2.15;;;23.80;50.60;;;;;;4953983;28;20102;-55
2021/01/17 05:55:34;;;;;;;4.32;1.90;;;23.70;50.50;;;;;;4953030;29;20049;-54
2021/01/17 05:58:30;;;;;;;6.00;2.00;;;23.70;50.70;;;;;;4953650;29;20023;-54
2021/01/17 06:01:14;;;;;;;7.40;2.15;;;23.60;50.70;;;;;;4953303;29;20386;-54
2021/01/17 06:03:58;;;;;;;4.47;2.08;;;23.60;50.80;;;;;;4941354;29;20027;-53
2021/01/17 06:06:25;;;;;;;6.90;2.10;;;23.50;50.80;;;;;;4935173;28;20107;-54
2021/01/17 06:08:54;;;;;;;10.05;2.35;;;23.40;50.80;;;;;;4934245;29;20039;-55
2021/01/17 06:11:22;;;;;;;9.48;2.13;;;23.30;50.80;;;;;;4934350;28;20051;-55
2021/01/17 06:13:57;;;;;;;7.35;2.45;;;23.30;51.00;;;;;;4934052;28;20043;-55
2021/01/17 06:16:31;;;;;;;9.57;2.20;;;23.20;51.00;;;;;;4938104;29;20071;-56
2021/01/17 06:19:03;;;;;;;6.00;1.77;;;23.10;51.10;;;;;;4953351;29;20034;-55
2021/01/17 06:21:31;;;;;;;9.63;2.03;;;23.10;51.20;;;;;;4953601;28;20031;-56
2021/01/17 06:24:02;;;;;;;5.85;1.92;;;23.00;51.30;;;;;;4953024;28;20062;-56
2021/01/17 06:26:31;;;;;;;4.47;1.92;;;23.00;51.40;;;;;;4952926;29;20158;-56
2021/01/17 06:28:59;;;;;;;7.75;1.98;;;22.90;51.50;;;;;;4953605;28;20038;-55
2021/01/17 06:31:28;;;;;;;4.05;2.17;;;22.80;51.50;;;;;;4952874;28;20049;-54
2021/01/17 06:34:07;;;;;;;5.00;1.60;;;22.80;51.60;;;;;;4953630;29;20101;-54
2021/01/17 06:36:35;;;;;;;5.22;1.80;;;22.70;51.70;;;;;;4952502;28;20068;-56
2021/01/17 06:39:02;;;;;;;5.88;1.92;;;22.70;51.90;;;;;;4952665;28;20059;-55
2021/01/17 06:41:40;;;;;;;5.93;1.80;;;22.60;51.90;;;;;;4953326;28;20031;-54
2021/01/17 06:44:11;;;;;;;3.95;1.90;;;22.50;51.90;;;;;;4953015;29;20467;-54
2021/01/17 06:46:46;;;;;;;5.45;1.83;;;22.40;52.00;;;;;;4952574;29;20031;-54
2021/01/17 06:49:19;;;;;;;4.60;1.85;;;22.40;52.10;;;;;;4952595;28;20046;-54
2021/01/17 06:51:46;;;;;;;5.28;1.90;;;22.30;52.20;;;;;;4952755;28;20027;-55
2021/01/17 06:54:16;;;;;;;5.68;1.77;;;22.20;52.30;;;;;;4952815;28;20425;-54
2021/01/17 06:56:48;;;;;;;3.40;1.70;;;22.20;52.40;;;;;;4952995;28;20480;-56
2021/01/17 06:59:36;;;;;;;3.10;1.85;;;22.10;52.40;;;;;;4952847;29;20024;-55
2021/01/17 07:02:14;;;;;;;5.32;1.67;;;22.10;52.60;;;;;;4933445;29;20485;-55
2021/01/17 07:04:53;;;;;;;7.53;2.03;;;22.00;52.70;;;;;;4946050;28;20032;-55
2021/01/17 07:07:44;;;;;;;11.02;2.10;;;21.90;52.90;;;;;;4952669;28;20397;-55
2021/01/17 20:31:33;;;;;;;9.10;2.08;;;22.10;55.20;;;;;;4988434;28;20401;-55
2021/01/17 20:34:00;;;;;;;10.07;2.05;;;22.10;56.20;;;;;;4987629;28;20077;-54
2021/01/17 20:36:39;;;;;;;6.10;1.70;;;22.20;55.90;;;;;;4969151;28;20027;-55
2021/01/17 20:39:08;;;;;;;8.25;1.70;;;22.30;55.60;;;;;;4969467;28;20490;-56
2021/01/17 20:41:37;;;;;;;12.43;6.65;;;22.50;55.30;;;;;;4969163;28;20027;-55
2021/01/17 20:44:05;;;;;;;16.65;3.55;;;22.60;55.00;;;;;;4969067;28;20031;-55
2021/01/17 20:46:32;;;;;;;19.08;3.55;;;22.70;54.70;;;;;;4968966;28;20034;-55
2021/01/17 20:48:59;;;;;;;20.40;4.13;;;22.80;54.40;;;;;;4968644;28;20031;-55
2021/01/17 20:51:26;;;;;;;8.73;3.75;;;22.90;54.10;;;;;;4968708;28;20505;-56
2021/01/17 20:53:53;;;;;;;7.13;3.80;;;23.00;53.80;;;;;;4968456;28;20039;-56
2021/01/17 20:56:20;;;;;;;11.80;3.20;;;23.10;53.70;;;;;;4968919;28;20027;-55
2021/01/17 20:58:48;;;;;;;6.85;3.60;;;23.10;53.40;;;;;;4969243;28;20035;-56
2021/01/17 21:01:17;;;;;;;8.35;3.78;;;23.20;53.30;;;;;;4968819;28;20374;-55
2021/01/17 21:03:44;;;;;;;12.60;3.67;;;23.30;53.00;;;;;;4968748;28;20027;-55
2021/01/17 21:06:12;;;;;;;8.57;3.60;;;23.40;52.90;;;;;;4968701;28;20155;-55
2021/01/17 21:08:39;;;;;;;16.52;3.58;;;23.40;52.70;;;;;;4969401;28;20077;-55
2021/01/17 21:11:17;;;;;;;13.38;3.30;;;23.50;52.50;;;;;;4968641;28;20027;-55
2021/01/17 21:13:48;;;;;;;12.27;3.60;;;23.60;52.40;;;;;;4969036;28;20039;-55
2021/01/17 21:16:15;;;;;;;9.00;3.20;;;23.60;52.20;;;;;;4968322;28;20023;-55
2021/01/17 21:18:42;;;;;;;9.68;3.28;;;23.60;52.20;;;;;;4968704;28;20111;-55
2021/01/17 21:21:09;;;;;;;11.07;3.58;;;23.70;52.30;;;;;;4967779;28;20381;-54
2021/01/17 21:23:44;;;;;;;8.77;3.20;;;23.70;52.10;;;;;;4968449;28;20470;-55
2021/01/17 21:26:17;;;;;;;9.35;3.50;;;23.80;52.20;;;;;;4968526;28;20107;-54
2021/01/17 21:28:44;;;;;;;5.72;2.95;;;23.80;52.40;;;;;;4968398;28;20054;-55
2021/01/17 21:31:13;;;;;;;11.23;3.33;;;23.80;52.40;;;;;;4969449;28;20497;-55
2021/01/17 21:33:40;;;;;;;8.07;2.80;;;23.80;52.30;;;;;;4967996;28;20034;-55
2021/01/17 21:36:07;;;;;;;7.43;3.05;;;23.90;52.90;;;;;;4968055;28;20031;-55
2021/01/17 21:38:34;;;;;;;11.00;2.78;;;23.90;52.10;;;;;;4968239;28;20054;-55
2021/01/17 21:41:00;;;;;;;6.10;2.67;;;23.90;52.00;;;;;;4965179;28;20020;-55
2021/01/17 21:43:27;;;;;;;9.50;2.85;;;23.90;51.90;;;;;;4955339;28;20451;-55
2021/01/17 21:45:53;;;;;;;5.00;2.60;;;23.90;51.80;;;;;;4955366;28;20089;-55
2021/01/17 21:48:20;;;;;;;4.53;2.45;;;24.00;51.80;;;;;;4954969;28;20540;-55
2021/01/17 21:50:56;;;;;;;9.23;2.30;;;24.00;51.70;;;;;;4951843;29;20078;-54
2021/01/17 21:53:22;;;;;;;5.60;2.97;;;24.00;51.50;;;;;;4939739;29;20103;-55
2021/01/17 21:55:49;;;;;;;9.07;2.72;;;24.00;51.60;;;;;;4953337;29;20027;-55
2021/01/17 21:58:15;;;;;;;7.50;2.60;;;24.00;51.60;;;;;;4953393;28;20467;-54
2021/01/17 22:00:42;;;;;;;6.75;2.47;;;24.00;51.50;;;;;;4954866;28;20383;-55
2021/01/17 22:03:08;;;;;;;6.50;2.40;;;24.00;51.50;;;;;;4954789;29;20060;-55
2021/01/17 22:05:35;;;;;;;8.48;2.72;;;24.00;51.40;;;;;;4955102;28;20118;-55
2021/01/17 22:08:01;;;;;;;9.73;2.72;;;24.00;51.30;;;;;;4954754;29;20038;-55
2021/01/17 22:10:28;;;;;;;4.93;2.15;;;24.00;51.20;;;;;;4955198;29;20467;-56
2021/01/17 22:12:55;;;;;;;6.50;2.38;;;24.00;51.90;;;;;;4955041;28;20035;-55
2021/01/17 22:15:22;;;;;;;7.80;2.38;;;24.00;51.20;;;;;;4954698;28;20031;-55
2021/01/17 22:17:53;;;;;;;5.72;2.30;;;24.00;51.10;;;;;;4954826;29;20031;-55
2021/01/17 22:20:20;;;;;;;7.70;2.00;;;24.00;51.00;;;;;;4954933;28;20118;-54
2021/01/17 22:22:48;;;;;;;6.57;2.28;;;24.00;51.10;;;;;;4954779;29;20506;-55
2021/01/17 22:25:17;;;;;;;6.07;1.95;;;24.00;51.10;;;;;;4954459;28;20046;-55
2021/01/17 22:27:44;;;;;;;4.60;2.20;;;24.00;51.10;;;;;;4954727;29;20039;-55
2021/01/17 22:30:13;;;;;;;3.42;2.10;;;24.00;51.10;;;;;;4954567;28;20059;-55
2021/01/17 22:32:42;;;;;;;7.43;2.10;;;24.00;51.10;;;;;;4955122;28;20036;-56
2021/01/17 22:35:10;;;;;;;5.25;1.90;;;23.90;51.00;;;;;;4954377;28;20027;-55
2021/01/17 22:37:36;;;;;;;4.22;1.90;;;23.90;51.00;;;;;;4954592;29;20100;-55
2021/01/17 22:40:06;;;;;;;3.05;1.60;;;23.90;51.00;;;;;;4954289;29;20046;-55
2021/01/17 22:42:35;;;;;;;6.50;1.55;;;23.90;51.00;;;;;;4954578;28;20487;-56
2021/01/17 22:45:02;;;;;;;2.95;1.63;;;23.90;51.00;;;;;;4954876;28;20059;-55
2021/01/17 22:47:29;;;;;;;4.10;1.98;;;23.90;51.00;;;;;;4954982;28;20106;-56
2021/01/17 22:49:55;;;;;;;2.75;1.70;;;23.90;51.00;;;;;;4954027;29;20050;-56
2021/01/17 22:52:22;;;;;;;6.40;2.00;;;23.90;51.00;;;;;;4953738;28;20023;-55
2021/01/17 22:54:48;;;;;;;4.43;2.25;;;23.90;51.00;;;;;;4953341;29;20533;-55
2021/01/17 22:57:15;;;;;;;7.25;2.00;;;23.80;50.90;;;;;;4954171;28;20038;-55
2021/01/17 22:59:41;;;;;;;4.00;1.90;;;23.90;51.00;;;;;;4954124;29;20475;-55
2021/01/17 23:02:14;;;;;;;4.95;1.88;;;23.80;51.00;;;;;;4954218;29;20038;-55
2021/01/17 23:04:41;;;;;;;6.15;2.28;;;23.80;51.00;;;;;;4954184;29;20035;-55
2021/01/17 23:07:08;;;;;;;3.67;2.42;;;23.80;51.00;;;;;;4954417;28;20027;-55
2021/01/17 23:09:35;;;;;;;10.48;2.53;;;23.80;51.10;;;;;;4954019;28;20114;-56
2021/01/17 23:12:02;;;;;;;6.40;2.42;;;23.80;51.20;;;;;;4954358;28;20035;-55
2021/01/17 23:14:28;;;;;;;4.93;2.00;;;23.80;51.20;;;;;;4954020;28;20065;-55
2021/01/17 23:16:55;;;;;;;4.63;2.33;;;23.80;51.30;;;;;;4953994;29;20411;-55
2021/01/17 23:19:22;;;;;;;3.30;2.22;;;23.70;51.20;;;;;;4953979;28;20035;-56
2021/01/17 23:21:56;;;;;;;4.22;2.83;;;23.70;51.20;;;;;;5011098;28;20033;-55
2021/01/17 23:24:23;;;;;;;5.72;2.78;;;23.70;51.30;;;;;;5054700;28;20025;-55
2021/01/17 23:26:50;;;;;;;4.97;2.45;;;23.70;51.30;;;;;;5054607;28;20350;-55
2021/01/17 23:29:17;;;;;;;5.68;2.70;;;23.60;51.20;;;;;;5054283;28;20071;-55
2021/01/17 23:31:45;;;;;;;4.90;3.20;;;23.70;51.40;;;;;;5054576;28;20465;-55
2021/01/17 23:34:12;;;;;;;7.80;3.20;;;23.70;51.40;;;;;;5004951;28;20027;-55
2021/01/17 23:36:39;;;;;;;6.30;3.10;;;23.70;51.40;;;;;;4953638;29;20031;-55
2021/01/17 23:39:08;;;;;;;7.20;3.22;;;23.60;51.40;;;;;;4953578;29;20031;-53
2021/01/17 23:41:35;;;;;;;4.90;3.03;;;23.60;51.50;;;;;;4953716;28;20027;-55
2021/01/17 23:44:01;;;;;;;4.53;2.70;;;23.60;51.50;;;;;;4953225;28;20035;-55
2021/01/17 23:46:28;;;;;;;5.35;2.90;;;23.60;51.60;;;;;;4953556;29;20031;-55
2021/01/17 23:48:54;;;;;;;6.50;3.20;;;23.60;51.60;;;;;;4953478;28;20089;-55
2021/01/17 23:51:29;;;;;;;5.80;3.20;;;23.60;51.60;;;;;;4953077;28;20047;-55
2021/01/17 23:53:56;;;;;;;7.75;3.10;;;23.60;52.20;;;;;;4953217;28;20034;-55
2021/01/17 23:56:30;;;;;;;9.20;2.90;;;23.60;51.70;;;;;;4953503;29;20110;-55
2021/01/17 23:59:00;;;;;;;6.60;3.10;;;23.60;51.60;;;;;;4953304;29;20062;-55
